Terminal Aerodrome Forecast
Issued by NWS

Home | Current Version | Previous Version | Text Only | Print | Product List | Glossary On
Versions: 1 2 3 4 5 6 7 8 9 10 11 12 13 14
000
FTUS46 KMTR 280500 CCA
TAFOAK
TAF COR
KOAK 280551Z 2806/2912 VRB02KT 5SM MIFG BR FEW004
      TEMPO 2812/2816 2SM BCFG BR SCT003 SCT180
     FM281800 22008KT 4SM BR FEW009 SCT050 BKN150
     FM290300 18008G16KT 5SM HZ SCT050 OVC100 PROB30 2903/2906 -RA
      OVC040
     FM290600 18008G16KT 3SM -RA BR OVC030=

USA.gov is the U.S. government's official web portal to all federal, state and local government web resources and services.